PWSweather.com
Personal Weather Stations
Station Observations

AwhituWaiuku, CA 268400

Lat: -37.058, Lon: -174.6346

Elevation: 250

Station Type: Personal

http://www.weather-display.com/windy/gb/grahamsbeach.htm

Latest ConditionsUpdated 5:30:14 PM GMT-12:48 Thursday, Mar 5, 2015
Currently Today's Max Today's Min Today's Average
Temperature 69.2°F20.7°C 73.4°F23.0°C 66.9°F19.4°C 68.9°F20.5°C
Dew Point 60.9°F16.1°C 66.2°F19.0°C 60.9°F16.1°C 63.7°F17.6°C
Winds 11.5 mph WSW18.5 kmh WSW 27.6 mph WNW44.4 kmh WNW - 11.2 mph 18.0 kmh
Wind Gusts 15.0 mph24.1 kmh 40.3 mph64.9 kmh - -
Humidity 75% 90% 73% 84%
Pressure 29.58 in1001.7 mb 29.70 in1005.8 mb 29.53 in1000.0 mb -
Precipitation - 0.06 in1.5 mm - -
Hour Temp Dew Point Humidity Winds Wind Gusts Pressure Precip Precip Rate Daily Precip Total
05:30 PM 69.2°F20.7°C 60.9°F16.1°C 75% 11.5 mph WSW18.5 kmh WSW 15.0 mph24.1 kmh 29.58 in1001.7 mb 0.00 in0.0 mm 0.00 in/hr0.0 mm/hr 0.06 in1.5 mm
05:00 PM 70.0°F21.1°C 60.9°F16.1°C 73% 12.7 mph WSW20.4 kmh WSW 13.8 mph22.2 kmh 29.57 in1001.4 mb 0.00 in0.0 mm 0.00 in/hr0.0 mm/hr 0.06 in1.5 mm
04:30 PM 69.8°F21.0°C 63.7°F17.6°C 81% 16.1 mph WSW25.9 kmh WSW 19.6 mph31.5 kmh 29.57 in1001.4 mb 0.00 in0.0 mm 0.00 in/hr0.0 mm/hr 0.06 in1.5 mm
04:00 PM 68.5°F20.3°C 63.5°F17.5°C 84% 13.8 mph W22.2 kmh W 16.1 mph25.9 kmh 29.57 in1001.4 mb 0.00 in0.0 mm 0.00 in/hr0.0 mm/hr 0.06 in1.5 mm
03:30 PM 67.2°F19.6°C 62.8°F17.1°C 86% 12.7 mph W20.4 kmh W 18.4 mph29.6 kmh 29.57 in1001.4 mb 0.00 in0.0 mm 0.00 in/hr0.0 mm/hr 0.06 in1.5 mm
03:00 PM 67.1°F19.5°C 64.1°F17.8°C 90% 13.8 mph W22.2 kmh W 16.1 mph25.9 kmh 29.55 in1000.7 mb 0.00 in0.0 mm 0.00 in/hr0.0 mm/hr 0.06 in1.5 mm
02:30 PM 67.1°F19.5°C 64.1°F17.8°C 90% 13.8 mph WSW22.2 kmh WSW 19.6 mph31.5 kmh 29.55 in1000.7 mb 0.05 in1.3 mm 0.10 in/hr2.5 mm/hr 0.06 in1.5 mm
02:00 PM 72.0°F22.2°C 66.2°F19.0°C 82% 25.3 mph WNW40.7 kmh WNW 40.3 mph64.9 kmh 29.53 in1000.0 mb 0.01 in0.3 mm 0.02 in/hr0.5 mm/hr 0.01 in0.3 mm
01:30 PM 73.4°F23.0°C 64.6°F18.1°C 74% 27.6 mph WNW44.4 kmh WNW 38.0 mph61.2 kmh 29.53 in1000.0 mb 0.00 in0.0 mm 0.00 in/hr0.0 mm/hr 0.00 in0.0 mm
01:00 PM 72.6°F22.6°C 65.4°F18.6°C 78% 17.3 mph WNW27.8 kmh WNW 24.2 mph38.9 kmh 29.55 in1000.7 mb 0.00 in0.0 mm 0.00 in/hr0.0 mm/hr 0.00 in0.0 mm
12:30 PM 71.6°F22.0°C 65.8°F18.8°C 82% 12.7 mph N20.4 kmh N 16.1 mph25.9 kmh 29.55 in1000.7 mb 0.00 in0.0 mm 0.00 in/hr0.0 mm/hr 0.00 in0.0 mm
12:00 PM 70.8°F21.6°C 64.7°F18.2°C 81% 13.8 mph NNW22.2 kmh NNW 18.4 mph29.6 kmh 29.56 in1001.0 mb 0.00 in0.0 mm 0.00 in/hr0.0 mm/hr 0.00 in0.0 mm
11:30 AM 70.7°F21.5°C 64.6°F18.1°C 81% 11.5 mph N18.5 kmh N 12.7 mph20.4 kmh 29.56 in1001.0 mb 0.00 in0.0 mm 0.00 in/hr0.0 mm/hr 0.00 in0.0 mm
11:00 AM 69.0°F20.6°C 63.6°F17.6°C 83% 15.0 mph NNW24.1 kmh NNW 17.3 mph27.8 kmh 29.57 in1001.4 mb 0.00 in0.0 mm 0.00 in/hr0.0 mm/hr 0.00 in0.0 mm
10:30 AM 71.5°F21.9°C 63.9°F17.7°C 77% 9.2 mph NNW14.8 kmh NNW 10.4 mph16.7 kmh 29.58 in1001.7 mb 0.00 in0.0 mm 0.00 in/hr0.0 mm/hr 0.00 in0.0 mm
10:00 AM 70.6°F21.4°C 63.8°F17.7°C 79% 6.9 mph N11.1 kmh N 11.5 mph18.5 kmh 29.58 in1001.7 mb 0.00 in0.0 mm 0.00 in/hr0.0 mm/hr 0.00 in0.0 mm
09:30 AM 70.5°F21.4°C 63.3°F17.4°C 78% 13.8 mph N22.2 kmh N 26.5 mph42.6 kmh 29.57 in1001.4 mb 0.00 in0.0 mm 0.00 in/hr0.0 mm/hr 0.00 in0.0 mm
09:00 AM 69.6°F20.9°C 63.2°F17.3°C 80% 12.7 mph N20.4 kmh N 19.6 mph31.5 kmh 29.58 in1001.7 mb 0.00 in0.0 mm 0.00 in/hr0.0 mm/hr 0.00 in0.0 mm
08:30 AM 69.4°F20.8°C 63.3°F17.4°C 81% 8.1 mph N13.0 kmh N 17.3 mph27.8 kmh 29.59 in1002.0 mb 0.00 in0.0 mm 0.00 in/hr0.0 mm/hr 0.00 in0.0 mm
08:00 AM 68.8°F20.4°C 63.1°F17.3°C 82% 10.4 mph NE16.7 kmh NE 13.8 mph22.2 kmh 29.60 in1002.4 mb 0.00 in0.0 mm 0.00 in/hr0.0 mm/hr 0.00 in0.0 mm
07:30 AM 68.8°F20.4°C 63.4°F17.4°C 83% 10.4 mph NNW16.7 kmh NNW 15.0 mph24.1 kmh 29.60 in1002.4 mb 0.00 in0.0 mm 0.00 in/hr0.0 mm/hr 0.00 in0.0 mm
07:00 AM 67.9°F19.9°C 63.2°F17.3°C 85% 11.5 mph NNE18.5 kmh NNE 11.5 mph18.5 kmh 29.60 in1002.4 mb 0.00 in0.0 mm 0.00 in/hr0.0 mm/hr 0.00 in0.0 mm
06:30 AM 67.5°F19.7°C 63.2°F17.3°C 86% 11.5 mph 18.5 kmh 11.5 mph18.5 kmh 29.60 in1002.4 mb 0.00 in0.0 mm 0.00 in/hr0.0 mm/hr 0.00 in0.0 mm
06:00 AM 67.3°F19.6°C 63.6°F17.6°C 88% 5.8 mph N9.3 kmh N 16.1 mph25.9 kmh 29.60 in1002.4 mb 0.00 in0.0 mm 0.00 in/hr0.0 mm/hr 0.00 in0.0 mm
05:30 AM 67.2°F19.6°C 63.2°F17.3°C 87% 9.2 mph N14.8 kmh N 13.8 mph22.2 kmh 29.60 in1002.4 mb 0.00 in0.0 mm 0.00 in/hr0.0 mm/hr 0.00 in0.0 mm
05:00 AM 67.2°F19.6°C 63.2°F17.3°C 87% 9.2 mph NE14.8 kmh NE 11.5 mph18.5 kmh 29.60 in1002.4 mb 0.00 in0.0 mm 0.00 in/hr0.0 mm/hr 0.00 in0.0 mm
04:30 AM 67.2°F19.6°C 63.5°F17.5°C 88% 8.1 mph ENE13.0 kmh ENE 10.4 mph16.7 kmh 29.61 in1002.7 mb 0.00 in0.0 mm 0.00 in/hr0.0 mm/hr 0.00 in0.0 mm
04:00 AM 66.9°F19.4°C 63.6°F17.6°C 89% 11.5 mph NNE18.5 kmh NNE 11.5 mph18.5 kmh 29.62 in1003.0 mb 0.00 in0.0 mm 0.00 in/hr0.0 mm/hr 0.00 in0.0 mm
03:30 AM 67.2°F19.6°C 63.8°F17.7°C 89% 5.8 mph N9.3 kmh N 9.2 mph14.8 kmh 29.62 in1003.0 mb 0.00 in0.0 mm 0.00 in/hr0.0 mm/hr 0.00 in0.0 mm
03:00 AM 66.9°F19.4°C 63.9°F17.7°C 90% 6.9 mph NE11.1 kmh NE 11.5 mph18.5 kmh 29.62 in1003.0 mb 0.00 in0.0 mm 0.00 in/hr0.0 mm/hr 0.00 in0.0 mm
02:30 AM 66.9°F19.4°C 63.6°F17.6°C 89% 3.5 mph NNE5.6 kmh NNE 6.9 mph11.1 kmh 29.64 in1003.7 mb 0.00 in0.0 mm 0.00 in/hr0.0 mm/hr 0.00 in0.0 mm
02:00 AM 67.3°F19.6°C 63.6°F17.6°C 88% 8.1 mph N13.0 kmh N 9.2 mph14.8 kmh 29.66 in1004.4 mb 0.00 in0.0 mm 0.00 in/hr0.0 mm/hr 0.00 in0.0 mm
01:30 AM 67.8°F19.9°C 63.8°F17.7°C 87% 5.8 mph NW9.3 kmh NW 10.4 mph16.7 kmh 29.67 in1004.7 mb 0.00 in0.0 mm 0.00 in/hr0.0 mm/hr 0.00 in0.0 mm
01:00 AM 67.8°F19.9°C 63.8°F17.7°C 87% 5.8 mph NE9.3 kmh NE 10.4 mph16.7 kmh 29.68 in1005.1 mb 0.00 in0.0 mm 0.00 in/hr0.0 mm/hr 0.00 in0.0 mm
12:30 AM 67.9°F19.9°C 63.9°F17.7°C 87% 6.9 mph N11.1 kmh N 11.5 mph18.5 kmh 29.69 in1005.4 mb 0.00 in0.0 mm 0.00 in/hr0.0 mm/hr 0.00 in0.0 mm
12:00 AM 68.2°F20.1°C 64.5°F18.1°C 88% 5.8 mph N9.3 kmh N 9.2 mph14.8 kmh 29.70 in1005.8 mb 0.00 in0.0 mm 0.00 in/hr0.0 mm/hr 0.00 in0.0 mm